createdAt,value
2023-04-22T00:00:42.409Z,2.71
2023-04-22T00:01:44.242Z,2.64
2023-04-22T00:02:46.143Z,2.89
2023-04-22T00:03:47.995Z,2.49
2023-04-22T00:04:50.273Z,3.07
2023-04-22T00:05:52.309Z,2.61
2023-04-22T00:06:54.157Z,2.95
2023-04-22T00:07:55.968Z,2.52
2023-04-22T00:08:57.770Z,2.61
2023-04-22T00:09:59.572Z,3.02
2023-04-22T00:11:01.399Z,3.01
2023-04-22T00:12:03.256Z,2.58
2023-04-22T00:13:05.062Z,2.81
2023-04-22T00:14:06.856Z,2.66
2023-04-22T00:15:08.665Z,2.99
2023-04-22T00:16:11.735Z,3.08
2023-04-22T00:17:13.648Z,2.79
2023-04-22T00:18:15.456Z,3.29
2023-04-22T00:19:17.251Z,3.26
2023-04-22T00:20:19.053Z,2.86
2023-04-22T00:21:20.850Z,2.78
2023-04-22T00:22:22.686Z,2.69
2023-04-22T00:23:24.493Z,3.03
2023-04-22T00:24:26.293Z,2.84
2023-04-22T00:25:28.122Z,3.24
2023-04-22T00:26:29.928Z,3.41
2023-04-22T00:27:31.771Z,3.03
2023-04-22T00:28:33.579Z,3.17
2023-04-22T00:29:35.413Z,3.23
2023-04-22T00:30:37.189Z,3.31
2023-04-22T00:31:38.997Z,2.89
2023-04-22T00:32:40.857Z,3.29
2023-04-22T00:33:42.644Z,3.13
2023-04-22T00:34:44.426Z,3.31
2023-04-22T00:35:46.244Z,3.43
2023-04-22T00:36:48.034Z,2.95
2023-04-22T00:37:49.875Z,3.07
2023-04-22T00:38:51.678Z,3.09
2023-04-22T00:39:53.490Z,2.93
2023-04-22T00:40:55.276Z,3.39
2023-04-22T00:41:57.090Z,3.31
2023-04-22T00:42:58.944Z,2.88
2023-04-22T00:44:00.755Z,3.06
2023-04-22T00:45:02.857Z,3.53
2023-04-22T00:46:04.650Z,3.02
2023-04-22T00:47:06.555Z,2.85
2023-04-22T00:48:08.514Z,2.69
2023-04-22T00:49:10.394Z,3.33
2023-04-22T00:50:12.490Z,3.39
2023-04-22T00:51:14.288Z,3.25
2023-04-22T00:52:16.086Z,3.03
2023-04-22T00:53:17.934Z,3.81
2023-04-22T00:54:19.727Z,3.19
2023-04-22T00:55:21.527Z,3.20
2023-04-22T00:56:23.311Z,3.19
2023-04-22T00:57:25.106Z,2.93
2023-04-22T00:58:26.961Z,3.19
2023-04-22T00:59:28.767Z,3.29
2023-04-22T01:00:30.600Z,3.29
2023-04-22T01:01:32.612Z,3.27
2023-04-22T01:02:34.699Z,3.07
2023-04-22T01:03:36.907Z,3.05
2023-04-22T01:04:38.792Z,3.51
2023-04-22T01:05:40.579Z,3.47
2023-04-22T01:06:42.388Z,3.01
2023-04-22T01:07:44.177Z,3.12
2023-04-22T01:08:46.028Z,3.87
2023-04-22T01:09:47.810Z,3.26
2023-04-22T01:10:49.599Z,2.81
2023-04-22T01:11:51.386Z,2.89
2023-04-22T01:12:53.198Z,3.01
2023-04-22T01:13:55.036Z,3.22
2023-04-22T01:14:56.818Z,3.15
2023-04-22T01:15:58.634Z,3.09
2023-04-22T01:17:00.598Z,2.95
2023-04-22T01:18:02.696Z,2.80
2023-04-22T01:19:04.543Z,3.89
2023-04-22T01:20:06.339Z,3.27
2023-04-22T01:21:08.128Z,3.33
2023-04-22T01:22:09.939Z,2.69
2023-04-22T01:23:11.723Z,3.44
2023-04-22T01:24:13.562Z,2.99
2023-04-22T01:25:15.431Z,3.10
2023-04-22T01:26:17.234Z,2.68
2023-04-22T01:27:19.023Z,3.21
2023-04-22T01:28:20.827Z,2.92
2023-04-22T01:29:22.650Z,3.07
2023-04-22T01:30:24.456Z,3.44
2023-04-22T01:31:26.268Z,2.74
2023-04-22T01:32:28.191Z,2.87
2023-04-22T01:33:30.074Z,3.22
2023-04-22T01:34:31.914Z,3.09
2023-04-22T01:35:33.722Z,3.42
2023-04-22T01:36:35.551Z,3.10
2023-04-22T01:37:37.340Z,2.96
2023-04-22T01:38:39.132Z,3.25
2023-04-22T01:39:41.249Z,3.05
2023-04-22T01:40:43.303Z,3.46
2023-04-22T01:41:45.105Z,2.91
2023-04-22T01:42:47.013Z,2.72
2023-04-22T01:43:48.829Z,3.09
2023-04-22T01:44:50.663Z,2.71
2023-04-22T01:45:52.496Z,3.36
2023-04-22T01:46:54.377Z,3.49
2023-04-22T01:47:56.263Z,3.10
2023-04-22T01:48:58.083Z,2.86
2023-04-22T01:49:59.929Z,2.83
2023-04-22T01:51:01.744Z,2.96
2023-04-22T01:52:03.530Z,2.51
2023-04-22T01:53:05.329Z,3.07
2023-04-22T01:54:07.202Z,2.86
2023-04-22T01:55:09.061Z,2.79
2023-04-22T01:56:10.976Z,2.90
2023-04-22T01:57:12.773Z,2.85
2023-04-22T01:58:14.602Z,3.49
2023-04-22T01:59:16.410Z,3.06
2023-04-22T02:00:18.251Z,3.26
2023-04-22T02:01:20.064Z,3.70
2023-04-22T02:02:21.907Z,4.23
2023-04-22T02:03:23.963Z,3.87
2023-04-22T02:04:25.998Z,3.30
2023-04-22T02:05:27.805Z,3.57
2023-04-22T02:06:29.625Z,4.14
2023-04-22T02:07:31.433Z,3.06
2023-04-22T02:08:33.241Z,3.21
2023-04-22T02:09:35.045Z,3.50
2023-04-22T02:10:36.880Z,3.29
2023-04-22T02:11:38.696Z,3.33
2023-04-22T02:12:40.515Z,3.33
2023-04-22T02:13:42.330Z,3.91
2023-04-22T02:14:44.104Z,3.23
2023-04-22T02:15:46.042Z,3.29
2023-04-22T02:16:47.851Z,3.41
2023-04-22T02:17:49.662Z,3.64
2023-04-22T02:18:51.458Z,3.45
2023-04-22T02:19:53.305Z,3.43
2023-04-22T02:20:55.197Z,3.34
2023-04-22T02:21:57.002Z,3.34
2023-04-22T02:22:58.805Z,3.67
2023-04-22T02:24:00.593Z,3.13
2023-04-22T02:25:02.557Z,3.47
2023-04-22T02:26:04.436Z,3.19
2023-04-22T02:27:06.222Z,3.54
2023-04-22T02:28:08.027Z,4.68
2023-04-22T02:29:09.834Z,4.65
2023-04-22T02:30:11.950Z,4.60
2023-04-22T02:31:13.803Z,4.48
2023-04-22T02:32:15.573Z,4.24
2023-04-22T02:33:17.374Z,4.59
2023-04-22T02:34:20.212Z,4.18
2023-04-22T02:35:22.026Z,4.31
2023-04-22T02:36:24.061Z,3.56
2023-04-22T02:37:25.864Z,4.77
2023-04-22T02:38:27.676Z,4.30
2023-04-22T02:39:29.473Z,3.91
2023-04-22T02:40:31.277Z,4.07
2023-04-22T02:41:33.109Z,4.46
2023-04-22T02:42:34.926Z,4.18
2023-04-22T02:43:36.748Z,4.08
2023-04-22T02:44:38.538Z,4.16
2023-04-22T02:45:40.350Z,4.21
2023-04-22T02:46:42.237Z,3.79
2023-04-22T02:47:44.022Z,4.03
2023-04-22T02:48:45.802Z,4.59
2023-04-22T02:49:47.603Z,4.11
2023-04-22T02:50:49.502Z,4.15
2023-04-22T02:51:51.341Z,4.26
2023-04-22T02:52:53.149Z,4.81
2023-04-22T02:53:54.944Z,4.28
2023-04-22T02:54:56.745Z,3.99
2023-04-22T02:55:58.566Z,4.75
2023-04-22T02:57:00.379Z,4.78
2023-04-22T02:58:02.192Z,4.17
2023-04-22T02:59:03.988Z,4.38
2023-04-22T03:00:05.788Z,5.20
2023-04-22T03:01:07.713Z,4.39
2023-04-22T03:02:09.627Z,4.90
2023-04-22T03:03:11.606Z,4.93
2023-04-22T03:04:13.754Z,5.02
2023-04-22T03:05:15.751Z,5.20
2023-04-22T03:06:17.541Z,5.53
2023-04-22T03:07:19.392Z,5.11
2023-04-22T03:08:21.201Z,5.62
2023-04-22T03:09:23.012Z,5.32
2023-04-22T03:10:24.801Z,5.34
2023-04-22T03:11:26.601Z,5.19
2023-04-22T03:12:28.453Z,5.53
2023-04-22T03:13:30.343Z,5.83
2023-04-22T03:14:32.147Z,5.81
2023-04-22T03:15:33.960Z,5.45
2023-04-22T03:16:35.771Z,5.07
2023-04-22T03:17:37.713Z,4.72
2023-04-22T03:18:39.526Z,5.31
2023-04-22T03:19:41.554Z,5.43
2023-04-22T03:20:43.547Z,4.99
2023-04-22T03:21:45.368Z,5.68
2023-04-22T03:22:47.196Z,5.85
2023-04-22T03:23:49.018Z,5.97
2023-04-22T03:24:50.806Z,6.15
2023-04-22T03:25:52.600Z,5.29
2023-04-22T03:26:54.404Z,6.06
2023-04-22T03:27:56.235Z,5.72
2023-04-22T03:28:58.039Z,6.33
2023-04-22T03:29:59.842Z,6.35
2023-04-22T03:31:01.634Z,6.52
2023-04-22T03:32:03.453Z,6.09
2023-04-22T03:33:05.321Z,5.52
2023-04-22T03:34:07.201Z,5.75
2023-04-22T03:35:09.080Z,5.73
2023-04-22T03:36:11.105Z,6.19
2023-04-22T03:37:12.899Z,6.20
2023-04-22T03:38:14.745Z,6.92
2023-04-22T03:39:16.528Z,5.81
2023-04-22T03:40:18.345Z,6.40
2023-04-22T03:41:20.153Z,5.69
2023-04-22T03:42:21.951Z,5.76
2023-04-22T03:43:23.788Z,5.94
2023-04-22T03:44:25.591Z,5.61
2023-04-22T03:45:27.405Z,6.15
2023-04-22T03:46:29.308Z,6.21
2023-04-22T03:47:31.174Z,6.32
2023-04-22T03:48:32.974Z,6.23
2023-04-22T03:49:34.764Z,6.31
2023-04-22T03:50:36.575Z,6.63
2023-04-22T03:51:38.378Z,5.47
2023-04-22T03:52:40.192Z,6.28
2023-04-22T03:53:42.005Z,6.38
2023-04-22T03:54:43.806Z,6.80
2023-04-22T03:55:45.593Z,6.31
2023-04-22T03:56:47.426Z,7.38
2023-04-22T03:57:49.192Z,6.36
2023-04-22T03:58:51.046Z,6.76
2023-04-22T03:59:52.811Z,6.71
2023-04-22T04:00:54.717Z,6.95
2023-04-22T04:01:56.573Z,7.46
2023-04-22T04:02:58.512Z,7.04
2023-04-22T04:04:00.717Z,6.91
2023-04-22T04:05:02.824Z,6.85
2023-04-22T04:06:05.043Z,6.73
2023-04-22T04:07:06.913Z,6.22
2023-04-22T04:08:08.693Z,6.69
2023-04-22T04:09:10.535Z,7.27
2023-04-22T04:10:13.147Z,6.20
2023-04-22T04:11:14.957Z,6.86
2023-04-22T04:12:16.764Z,6.50
2023-04-22T04:13:18.567Z,6.33
2023-04-22T04:14:20.396Z,7.77
2023-04-22T04:15:22.224Z,6.25
2023-04-22T04:16:24.091Z,6.33
2023-04-22T04:17:26.053Z,6.01
2023-04-22T04:18:28.013Z,6.22
2023-04-22T04:19:29.852Z,6.34
2023-04-22T04:20:31.646Z,6.21
2023-04-22T04:21:33.457Z,6.05
2023-04-22T04:22:35.258Z,6.61
2023-04-22T04:23:37.034Z,6.19
2023-04-22T04:24:38.869Z,6.65
2023-04-22T04:25:40.651Z,6.87
2023-04-22T04:26:42.445Z,7.01
2023-04-22T04:27:44.261Z,6.62
2023-04-22T04:28:46.063Z,7.15
2023-04-22T04:29:47.890Z,7.89
2023-04-22T04:30:49.740Z,7.14
2023-04-22T04:31:51.488Z,7.44
2023-04-22T04:32:53.304Z,7.69
2023-04-22T04:33:55.068Z,7.27
2023-04-22T04:34:56.914Z,6.77
2023-04-22T04:35:58.692Z,7.39
2023-04-22T04:37:00.507Z,6.69
2023-04-22T04:38:02.317Z,6.21
2023-04-22T04:39:04.099Z,5.98
2023-04-22T04:40:06.054Z,6.03
2023-04-22T04:41:07.915Z,6.12
2023-04-22T04:42:09.729Z,6.41
2023-04-22T04:43:11.532Z,6.57
2023-04-22T04:44:13.339Z,6.51
2023-04-22T04:45:15.168Z,6.87
2023-04-22T04:46:17.068Z,7.21
2023-04-22T04:47:19.012Z,6.78
2023-04-22T04:48:20.907Z,7.17
2023-04-22T04:49:22.708Z,6.55
2023-04-22T04:50:24.565Z,6.08
2023-04-22T04:51:26.404Z,6.44
2023-04-22T04:52:28.213Z,7.33
2023-04-22T04:53:30.001Z,5.99
2023-04-22T04:54:31.798Z,6.83
2023-04-22T04:55:33.621Z,6.06
2023-04-22T04:56:35.427Z,6.51
2023-04-22T04:57:38.445Z,6.22
2023-04-22T04:58:40.448Z,6.81
2023-04-22T04:59:42.399Z,6.72
2023-04-22T05:00:44.403Z,6.79
2023-04-22T05:01:46.235Z,6.33
2023-04-22T05:02:48.155Z,6.65
2023-04-22T05:03:50.226Z,6.24
2023-04-22T05:04:52.388Z,6.57
2023-04-22T05:05:54.370Z,6.49
2023-04-22T05:06:56.169Z,6.84
2023-04-22T05:07:57.957Z,6.96
2023-04-22T05:08:59.761Z,7.59
2023-04-22T05:10:01.562Z,6.19
2023-04-22T05:11:03.396Z,6.50
2023-04-22T05:12:05.200Z,6.27
2023-04-22T05:13:07.013Z,6.17
2023-04-22T05:14:08.811Z,6.59
2023-04-22T05:15:10.628Z,5.69
2023-04-22T05:16:12.981Z,5.63
2023-04-22T05:17:14.763Z,5.49
2023-04-22T05:18:16.553Z,5.26
2023-04-22T05:19:18.344Z,5.63
2023-04-22T05:20:20.140Z,5.75
2023-04-22T05:21:22.018Z,5.34
2023-04-22T05:22:23.832Z,5.21
2023-04-22T05:23:25.616Z,4.99
2023-04-22T05:24:27.406Z,4.80
2023-04-22T05:25:29.207Z,4.99
2023-04-22T05:26:31.044Z,5.13
2023-04-22T05:27:32.853Z,5.68
2023-04-22T05:28:34.644Z,5.61
2023-04-22T05:29:36.436Z,4.95
2023-04-22T05:30:38.255Z,6.00
2023-04-22T05:31:40.153Z,5.97
2023-04-22T05:32:42.038Z,5.66
2023-04-22T05:33:43.914Z,5.62
2023-04-22T05:34:45.696Z,5.87
2023-04-22T05:35:47.512Z,5.79
2023-04-22T05:36:49.316Z,6.76
2023-04-22T05:37:51.114Z,6.49
2023-04-22T05:38:52.930Z,6.80
2023-04-22T05:39:54.729Z,6.62
2023-04-22T05:40:56.567Z,6.51
2023-04-22T05:41:58.375Z,7.14
2023-04-22T05:43:00.177Z,7.35
2023-04-22T05:44:02.014Z,6.97
2023-04-22T05:45:03.835Z,6.49
2023-04-22T05:46:05.795Z,6.62
2023-04-22T05:47:07.663Z,6.99
2023-04-22T05:48:09.450Z,6.20
2023-04-22T05:49:11.310Z,7.67
2023-04-22T05:50:13.128Z,6.61
2023-04-22T05:51:14.950Z,6.75
2023-04-22T05:52:16.821Z,7.27
2023-04-22T05:53:18.631Z,6.65
2023-04-22T05:54:20.453Z,6.28
2023-04-22T05:55:22.247Z,6.10
2023-04-22T05:56:24.058Z,5.57
2023-04-22T05:57:25.917Z,6.20
2023-04-22T05:58:27.740Z,5.65
2023-04-22T05:59:29.575Z,6.19
2023-04-22T06:00:31.452Z,6.04
2023-04-22T06:01:33.270Z,7.27
2023-04-22T06:02:35.287Z,6.17
2023-04-22T06:03:37.318Z,6.23
2023-04-22T06:04:39.408Z,6.33
2023-04-22T06:05:41.594Z,6.01
2023-04-22T06:06:43.401Z,6.11
2023-04-22T06:07:45.255Z,6.03
2023-04-22T06:08:47.072Z,6.10
2023-04-22T06:09:48.886Z,6.30
2023-04-22T06:10:50.688Z,5.79
2023-04-22T06:11:52.499Z,6.09
2023-04-22T06:12:54.350Z,6.93
2023-04-22T06:13:56.153Z,5.99
2023-04-22T06:14:57.944Z,6.27
2023-04-22T06:15:59.824Z,5.16
2023-04-22T06:17:01.677Z,5.68
2023-04-22T06:18:03.539Z,5.54
2023-04-22T06:19:05.316Z,5.40
2023-04-22T06:20:07.232Z,5.83
2023-04-22T06:21:09.136Z,5.04
2023-04-22T06:22:10.925Z,6.68
2023-04-22T06:23:12.753Z,5.29
2023-04-22T06:24:14.571Z,5.27
2023-04-22T06:25:16.421Z,4.87
2023-04-22T06:26:18.331Z,5.37
2023-04-22T06:27:20.136Z,4.88
2023-04-22T06:28:21.963Z,4.93
2023-04-22T06:29:23.787Z,4.63
2023-04-22T06:30:25.649Z,4.57
2023-04-22T06:31:27.479Z,4.67
2023-04-22T06:32:29.336Z,5.21
2023-04-22T06:33:31.179Z,5.37
2023-04-22T06:34:33.054Z,5.25
2023-04-22T06:35:34.873Z,5.32
2023-04-22T06:36:36.650Z,5.13
2023-04-22T06:37:38.448Z,5.41
2023-04-22T06:38:41.435Z,5.22
2023-04-22T06:39:43.286Z,4.87
2023-04-22T06:40:45.254Z,4.18
2023-04-22T06:41:47.164Z,4.43
2023-04-22T06:42:48.992Z,4.29
2023-04-22T06:43:50.835Z,4.39
2023-04-22T06:44:52.688Z,4.17
2023-04-22T06:45:54.485Z,4.27
2023-04-22T06:46:57.934Z,3.68
2023-04-22T06:47:59.892Z,3.73
2023-04-22T06:49:01.723Z,3.80
2023-04-22T06:50:03.517Z,4.51
2023-04-22T06:51:05.324Z,3.72
2023-04-22T06:52:07.152Z,4.59
2023-04-22T06:53:09.012Z,4.21
2023-04-22T06:54:10.906Z,4.17
2023-04-22T06:55:12.727Z,4.13
2023-04-22T06:56:14.535Z,4.41
2023-04-22T06:57:16.321Z,4.26
2023-04-22T06:58:18.025Z,4.63
2023-04-22T06:59:19.847Z,4.43
2023-04-22T07:00:21.654Z,4.61
2023-04-22T07:01:23.490Z,5.49
2023-04-22T07:02:25.418Z,4.92
2023-04-22T07:03:27.383Z,4.01
2023-04-22T07:04:29.559Z,4.41
2023-04-22T07:05:31.496Z,4.63
2023-04-22T07:06:33.327Z,4.55
2023-04-22T07:07:35.097Z,4.38
2023-04-22T07:08:36.901Z,4.79
2023-04-22T07:09:38.915Z,4.17
2023-04-22T07:10:40.881Z,3.77
2023-04-22T07:11:42.676Z,3.86
2023-04-22T07:12:44.465Z,3.60
2023-04-22T07:13:46.277Z,3.94
2023-04-22T07:14:48.099Z,3.59
2023-04-22T07:15:49.905Z,4.30
2023-04-22T07:16:51.774Z,4.02
2023-04-22T07:17:53.629Z,4.73
2023-04-22T07:18:55.539Z,4.15
2023-04-22T07:19:57.349Z,4.61
2023-04-22T07:20:59.145Z,4.66
2023-04-22T07:22:00.972Z,4.29
2023-04-22T07:23:02.759Z,4.47
2023-04-22T07:24:04.600Z,5.26
2023-04-22T07:25:06.443Z,5.30
2023-04-22T07:26:08.340Z,5.11
2023-04-22T07:27:10.128Z,4.57
2023-04-22T07:28:11.939Z,4.41
2023-04-22T07:29:13.733Z,5.49
2023-04-22T07:30:15.582Z,5.39
2023-04-22T07:31:17.396Z,4.76
2023-04-22T07:32:19.209Z,5.77
2023-04-22T07:33:21.002Z,6.23
2023-04-22T07:34:22.801Z,5.75
2023-04-22T07:35:24.679Z,5.76
2023-04-22T07:36:26.474Z,5.88
2023-04-22T07:37:28.290Z,5.99
2023-04-22T07:38:30.100Z,6.17
2023-04-22T07:39:31.896Z,7.28
2023-04-22T07:40:33.718Z,7.27
2023-04-22T07:41:35.519Z,8.65
2023-04-22T07:42:37.446Z,9.85
2023-04-22T07:43:39.251Z,9.09
2023-04-22T07:44:41.047Z,9.14
2023-04-22T07:45:42.969Z,11.31
2023-04-22T07:46:44.756Z,11.94
2023-04-22T07:47:46.496Z,13.49
2023-04-22T07:48:48.284Z,10.31
2023-04-22T07:49:50.095Z,8.11
2023-04-22T07:50:51.930Z,7.31
2023-04-22T07:51:53.748Z,6.32
2023-04-22T07:52:55.541Z,6.37
2023-04-22T07:53:57.365Z,5.61
2023-04-22T07:54:59.212Z,4.56
2023-04-22T07:56:02.097Z,4.21
2023-04-22T07:57:04.068Z,4.37
2023-04-22T07:58:05.873Z,4.01
2023-04-22T07:59:07.660Z,3.41
2023-04-22T08:00:09.469Z,3.81
2023-04-22T08:01:11.384Z,3.59
2023-04-22T08:02:13.266Z,3.58
2023-04-22T08:03:15.273Z,3.21
2023-04-22T08:04:17.525Z,2.77
2023-04-22T08:05:19.782Z,2.94
2023-04-22T08:06:21.673Z,3.43
2023-04-22T08:08:27.059Z,4.53
2023-04-22T08:09:28.852Z,4.11
2023-04-22T08:10:30.764Z,5.03
2023-04-22T08:11:32.611Z,5.36
2023-04-22T08:12:34.395Z,5.61
2023-04-22T08:13:36.194Z,4.78
2023-04-22T08:14:37.990Z,4.29
2023-04-22T08:15:39.816Z,4.68
2023-04-22T08:16:41.640Z,4.70
2023-04-22T08:17:43.404Z,5.04
2023-04-22T08:18:45.247Z,4.31
2023-04-22T08:19:47.033Z,4.36
2023-04-22T08:20:48.832Z,4.18
2023-04-22T08:21:50.674Z,4.39
2023-04-22T08:22:52.467Z,4.86
2023-04-22T08:23:54.292Z,4.91
2023-04-22T08:24:56.092Z,4.21
2023-04-22T08:25:57.896Z,4.35
2023-04-22T08:26:59.736Z,3.97
2023-04-22T08:28:01.529Z,3.91
2023-04-22T08:29:03.340Z,4.05
2023-04-22T08:30:05.125Z,4.21
2023-04-22T08:31:06.938Z,4.47
2023-04-22T08:32:08.786Z,4.42
2023-04-22T08:33:10.574Z,4.30
2023-04-22T08:34:12.397Z,4.12
2023-04-22T08:35:14.172Z,3.89
2023-04-22T08:36:15.975Z,4.53
2023-04-22T08:37:17.812Z,4.15
2023-04-22T08:38:19.637Z,4.78
2023-04-22T08:39:28.782Z,5.15
2023-04-22T08:40:28.860Z,4.81
2023-04-22T08:41:30.667Z,5.03
2023-04-22T08:42:32.488Z,5.21
2023-04-22T08:43:34.286Z,4.97
2023-04-22T08:44:36.103Z,4.44
2023-04-22T08:45:37.913Z,3.97
2023-04-22T08:46:39.831Z,4.54
2023-04-22T08:47:41.682Z,3.66
2023-04-22T08:48:43.468Z,3.93
2023-04-22T08:49:45.276Z,3.87
2023-04-22T08:50:47.082Z,3.66
2023-04-22T08:51:48.888Z,4.65
2023-04-22T08:52:50.745Z,3.65
2023-04-22T08:53:52.514Z,3.83
2023-04-22T08:54:54.324Z,3.57
2023-04-22T08:55:56.158Z,3.23
2023-04-22T08:56:57.950Z,3.02
2023-04-22T08:57:59.784Z,3.38
2023-04-22T08:59:01.477Z,3.57
2023-04-22T09:00:03.281Z,3.19
2023-04-22T09:01:05.082Z,3.54
2023-04-22T09:02:07.128Z,4.01
2023-04-22T09:03:09.266Z,3.59
2023-04-22T09:04:11.376Z,3.63
2023-04-22T09:05:13.450Z,4.12
2023-04-22T09:06:15.254Z,3.43
2023-04-22T09:07:17.048Z,2.62
2023-04-22T09:08:18.826Z,2.24
2023-04-22T09:09:20.630Z,1.84
2023-04-22T09:10:22.443Z,2.05
2023-04-22T09:11:24.250Z,1.91
2023-04-22T09:12:26.072Z,1.79
2023-04-22T09:13:27.905Z,1.85
2023-04-22T09:14:29.704Z,1.30
2023-04-22T09:15:31.513Z,1.55
2023-04-22T09:16:33.348Z,1.33
2023-04-22T09:17:35.168Z,1.36
2023-04-22T09:18:37.045Z,1.35
2023-04-22T09:19:39.056Z,1.17
2023-04-22T09:20:40.996Z,1.34
2023-04-22T09:21:42.786Z,1.85
2023-04-22T09:22:44.617Z,1.61
2023-04-22T09:23:46.499Z,1.67
2023-04-22T09:24:48.431Z,1.70
2023-04-22T09:25:50.284Z,1.70
2023-04-22T09:26:52.031Z,1.69
2023-04-22T09:27:53.849Z,2.47
2023-04-22T09:28:55.685Z,2.30
2023-04-22T09:29:57.463Z,2.46
2023-04-22T09:30:59.266Z,3.37
2023-04-22T09:32:01.100Z,2.89
2023-04-22T09:33:03.029Z,3.78
2023-04-22T09:34:04.907Z,4.23
2023-04-22T09:35:06.795Z,3.93
2023-04-22T09:36:09.706Z,3.65
2023-04-22T09:37:11.528Z,3.05
2023-04-22T09:38:13.328Z,2.45
2023-04-22T09:39:15.162Z,2.32
2023-04-22T09:40:16.942Z,2.01
2023-04-22T09:41:18.752Z,2.04
2023-04-22T09:42:20.554Z,1.84
2023-04-22T09:43:22.366Z,1.94
2023-04-22T09:44:24.202Z,2.13
2023-04-22T09:45:25.889Z,1.67
2023-04-22T09:46:27.856Z,1.87
2023-04-22T09:47:30.047Z,1.72
2023-04-22T09:48:31.807Z,1.53
2023-04-22T09:49:33.653Z,1.79
2023-04-22T09:50:35.457Z,1.70
2023-04-22T09:51:37.261Z,1.69
2023-04-22T09:52:39.066Z,1.64
2023-04-22T09:53:40.868Z,1.64
2023-04-22T09:54:42.711Z,1.85
2023-04-22T09:55:44.498Z,1.73
2023-04-22T09:56:46.300Z,1.66
2023-04-22T09:57:48.101Z,1.82
2023-04-22T09:58:49.901Z,1.77
2023-04-22T09:59:51.742Z,1.74
2023-04-22T10:00:53.564Z,2.14
2023-04-22T10:01:55.448Z,2.15
2023-04-22T10:02:57.280Z,2.11
2023-04-22T10:03:59.154Z,2.58
2023-04-22T10:05:00.960Z,2.27
2023-04-22T10:06:02.767Z,2.82
2023-04-22T10:07:04.575Z,3.33
2023-04-22T10:08:06.418Z,3.22
2023-04-22T10:09:09.526Z,3.51
2023-04-22T10:10:11.527Z,4.16
2023-04-22T10:11:13.330Z,4.06
2023-04-22T10:12:16.616Z,5.29
2023-04-22T10:13:18.730Z,5.47
2023-04-22T10:14:20.526Z,4.43
2023-04-22T10:15:23.198Z,5.44
2023-04-22T10:16:26.010Z,7.18
2023-04-22T10:17:27.798Z,7.17
2023-04-22T10:18:29.605Z,6.38
2023-04-22T10:19:31.397Z,5.75
2023-04-22T10:20:33.236Z,6.13
2023-04-22T10:21:35.022Z,3.67
2023-04-22T10:22:36.831Z,2.61
2023-04-22T10:23:38.640Z,2.08
2023-04-22T10:24:40.430Z,2.35
2023-04-22T10:25:42.308Z,1.83
2023-04-22T10:26:44.097Z,2.07
2023-04-22T10:27:45.895Z,1.86
2023-04-22T10:28:47.691Z,1.61
2023-04-22T10:29:49.491Z,1.58
2023-04-22T10:30:51.411Z,1.41
2023-04-22T10:31:53.153Z,1.55
2023-04-22T10:32:55.075Z,1.65
2023-04-22T10:33:56.783Z,1.65
2023-04-22T10:34:58.896Z,1.73
2023-04-22T10:36:00.826Z,1.99
2023-04-22T10:37:02.631Z,2.06
2023-04-22T10:38:04.413Z,1.87
2023-04-22T10:39:06.219Z,2.33
2023-04-22T10:40:08.329Z,2.08
2023-04-22T10:41:10.157Z,2.95
2023-04-22T10:42:11.950Z,3.03
2023-04-22T10:43:13.742Z,3.31
2023-04-22T10:44:15.546Z,3.56
2023-04-22T10:45:17.378Z,2.99
2023-04-22T10:46:19.240Z,2.51
2023-04-22T10:47:20.985Z,2.24
2023-04-22T10:48:22.783Z,2.60
2023-04-22T10:49:24.583Z,2.85
2023-04-22T10:50:26.411Z,3.14
2023-04-22T10:51:28.208Z,2.87
2023-04-22T10:52:30.016Z,2.09
2023-04-22T10:53:31.901Z,1.50
2023-04-22T10:54:33.702Z,1.54
2023-04-22T10:55:35.489Z,1.67
2023-04-22T10:56:39.090Z,1.39
2023-04-22T10:57:40.909Z,1.44
2023-04-22T10:58:42.708Z,1.51
2023-04-22T10:59:44.508Z,1.46
2023-04-22T11:00:53.980Z,1.63
2023-04-22T11:01:49.983Z,1.85
2023-04-22T11:02:51.814Z,2.09
2023-04-22T11:03:53.864Z,2.31
2023-04-22T11:04:55.866Z,2.00
2023-04-22T11:05:57.639Z,2.82
2023-04-22T11:06:59.477Z,1.57
2023-04-22T11:08:01.257Z,1.56
2023-04-22T11:09:03.072Z,1.37
2023-04-22T11:10:04.872Z,1.27
2023-04-22T11:11:06.669Z,1.11
2023-04-22T11:12:08.512Z,0.95
2023-04-22T11:13:10.300Z,1.06
2023-04-22T11:14:12.098Z,1.27
2023-04-22T11:15:13.948Z,1.00
2023-04-22T11:16:15.725Z,1.15
2023-04-22T11:17:17.535Z,1.03
2023-04-22T11:18:19.347Z,1.21
2023-04-22T11:19:21.149Z,1.10
2023-04-22T11:20:22.957Z,1.19
2023-04-22T11:21:24.740Z,1.24
2023-04-22T11:22:26.588Z,1.62
2023-04-22T11:23:28.392Z,1.51
2023-04-22T11:24:30.188Z,1.60
2023-04-22T11:25:32.004Z,1.51
2023-04-22T11:26:33.803Z,1.63
2023-04-22T11:27:35.642Z,1.50
2023-04-22T11:28:37.433Z,1.67
2023-04-22T11:29:39.476Z,1.99
2023-04-22T11:30:41.484Z,1.97
2023-04-22T11:31:43.316Z,1.83
2023-04-22T11:32:45.276Z,1.73
2023-04-22T11:33:48.451Z,2.06
2023-04-22T11:34:50.648Z,2.06
2023-04-22T11:35:52.454Z,2.17
2023-04-22T11:36:54.385Z,2.48
2023-04-22T11:37:56.295Z,2.24
2023-04-22T11:38:58.056Z,2.12
2023-04-22T11:40:20.894Z,1.87
2023-04-22T11:41:03.595Z,2.02
2023-04-22T11:42:05.429Z,2.01
2023-04-22T11:43:07.288Z,1.77
2023-04-22T11:44:09.112Z,1.76
2023-04-22T11:45:10.945Z,1.77
2023-04-22T11:46:12.852Z,1.78
2023-04-22T11:47:14.698Z,2.16
2023-04-22T11:48:16.631Z,2.34
2023-04-22T11:49:18.508Z,2.32
2023-04-22T11:50:20.317Z,2.36
2023-04-22T11:51:22.144Z,2.55
2023-04-22T11:52:23.926Z,2.13
2023-04-22T11:53:25.674Z,1.87
2023-04-22T11:54:27.499Z,1.87
2023-04-22T11:55:29.309Z,1.59
2023-04-22T11:56:31.157Z,1.43
2023-04-22T11:57:33.180Z,1.26
2023-04-22T11:58:35.008Z,1.55
2023-04-22T11:59:36.873Z,1.03
2023-04-22T12:00:38.650Z,0.88
2023-04-22T12:01:40.433Z,0.89
2023-04-22T12:02:42.403Z,1.13
2023-04-22T12:03:44.742Z,1.12
2023-04-22T12:04:46.781Z,1.35
2023-04-22T12:05:48.780Z,1.39
2023-04-22T12:06:50.569Z,1.42
2023-04-22T12:07:52.276Z,1.29
2023-04-22T12:08:54.126Z,1.62
2023-04-22T12:09:55.937Z,1.61
2023-04-22T12:10:57.756Z,1.33
2023-04-22T12:11:59.544Z,1.13
2023-04-22T12:13:01.339Z,1.33
2023-04-22T12:14:03.240Z,1.23
2023-04-22T12:15:05.030Z,1.10
2023-04-22T12:16:06.840Z,1.22
2023-04-22T12:17:08.669Z,1.35
2023-04-22T12:18:10.433Z,1.37
2023-04-22T12:19:12.282Z,1.99
2023-04-22T12:20:14.446Z,1.47
2023-04-22T12:21:16.282Z,1.65
2023-04-22T12:22:18.138Z,1.36
2023-04-22T12:23:19.981Z,1.69
2023-04-22T12:24:21.838Z,2.05
2023-04-22T12:25:23.636Z,1.56
2023-04-22T12:26:26.923Z,1.73
2023-04-22T12:27:29.058Z,1.57
2023-04-22T12:28:30.931Z,1.96
2023-04-22T12:29:32.841Z,1.76
2023-04-22T12:30:34.649Z,1.75
2023-04-22T12:31:36.446Z,2.01
2023-04-22T12:32:38.233Z,1.31
2023-04-22T12:33:40.095Z,1.22
2023-04-22T12:34:42.074Z,1.40
2023-04-22T12:35:43.902Z,1.21
2023-04-22T12:36:45.772Z,1.36
2023-04-22T12:37:47.594Z,1.55
2023-04-22T12:38:49.490Z,1.80
2023-04-22T12:39:51.401Z,2.13
2023-04-22T12:40:53.246Z,1.64
2023-04-22T12:41:55.091Z,1.40
2023-04-22T12:42:56.920Z,1.56
2023-04-22T12:43:58.723Z,1.40
2023-04-22T12:45:00.608Z,1.67
2023-04-22T12:46:02.545Z,1.69
2023-04-22T12:47:04.358Z,1.55
2023-04-22T12:48:06.177Z,1.39
2023-04-22T12:49:07.972Z,2.12
2023-04-22T12:50:10.109Z,1.78
2023-04-22T12:51:11.929Z,1.84
2023-04-22T12:52:13.748Z,1.76
2023-04-22T12:53:15.552Z,1.65
2023-04-22T12:54:17.353Z,1.73
2023-04-22T12:55:19.196Z,2.03
2023-04-22T12:56:20.996Z,1.89
2023-04-22T12:57:22.799Z,1.81
2023-04-22T12:58:24.594Z,1.73
2023-04-22T12:59:26.403Z,1.50
2023-04-22T13:00:28.372Z,2.00
2023-04-22T13:01:30.231Z,1.81
2023-04-22T13:02:32.122Z,2.01
2023-04-22T13:03:34.103Z,1.93
2023-04-22T13:04:36.104Z,2.60
2023-04-22T13:05:37.978Z,2.70
2023-04-22T13:06:40.087Z,2.60
2023-04-22T13:07:42.388Z,4.06
2023-04-22T13:08:44.187Z,1.70
2023-04-22T13:09:46.039Z,1.31
2023-04-22T13:10:47.858Z,0.94
2023-04-22T13:11:49.650Z,1.20
2023-04-22T13:12:51.446Z,0.84
2023-04-22T13:13:53.294Z,1.12
2023-04-22T13:14:55.103Z,1.05
2023-04-22T13:15:57.022Z,1.96
2023-04-22T13:16:58.904Z,1.37
2023-04-22T13:18:00.836Z,2.12
2023-04-22T13:19:02.724Z,1.41
2023-04-22T13:20:04.672Z,1.56
2023-04-22T13:21:06.534Z,1.80
2023-04-22T13:22:08.326Z,1.61
2023-04-22T13:23:10.135Z,1.72
2023-04-22T13:24:11.942Z,1.71
2023-04-22T13:25:13.748Z,2.46
2023-04-22T13:26:15.610Z,2.29
2023-04-22T13:27:17.403Z,2.56
2023-04-22T13:28:19.206Z,2.25
2023-04-22T13:29:22.145Z,3.48
2023-04-22T13:30:23.968Z,2.77
2023-04-22T13:31:25.808Z,2.39
2023-04-22T13:32:27.600Z,2.55
2023-04-22T13:33:29.397Z,2.65
2023-04-22T13:34:31.206Z,2.87
2023-04-22T13:35:33.052Z,3.23
2023-04-22T13:36:34.857Z,3.07
2023-04-22T13:37:36.660Z,3.04
2023-04-22T13:38:38.456Z,3.27
2023-04-22T13:39:40.521Z,3.28
2023-04-22T13:40:42.495Z,3.46
2023-04-22T13:41:44.319Z,3.20
2023-04-22T13:42:46.138Z,3.57
2023-04-22T13:43:47.942Z,3.90
2023-04-22T13:44:49.734Z,4.83